MAPA DE AEROPUERTO

INFORMACIÓN METAR y TAF

METAR FOR LEJR
ADDS - METARS form results

(1022 UTC 07 May 2021)
Data provider http://aviationweather.gov/metar/data/
 
METAR text: LEJR 071000Z VRB02KT CAVOK 28/08 Q1018
Conditions at: LEJR (JEREZ (CIV/MIL) , ES) observed 1000 UTC 07 May 2021
Temperature: 28.0°C (82°F)
Dewpoint: 8.0°C (46°F) [RH = 28%]
Pressure (altimeter): 30.06 inches Hg (1018.0 mb)
Winds: variable direction winds at 2 MPH (2 knots; 1.0 m/s)
Visibility: 6 or more miles (10+ km)
Ceiling: ceiling and visibility are OK
Clouds: unknown
Weather: no significant weather observed at this time

METAR text: LEJR 070930Z VRB02KT CAVOK 27/10 Q1018
Conditions at: LEJR (JEREZ (CIV/MIL) , ES) observed 0930 UTC 07 May 2021
Temperature: 27.0°C (81°F)
Dewpoint: 10.0°C (50°F) [RH = 34%]
Pressure (altimeter): 30.06 inches Hg (1018.0 mb)
Winds: variable direction winds at 2 MPH (2 knots; 1.0 m/s)
Visibility: 6 or more miles (10+ km)
Ceiling: ceiling and visibility are OK
Clouds: unknown
Weather: no significant weather observed at this time

Forecast for: LEJR (JEREZ (CIV/MIL) , ES)
Text: TAF LEJR 070800Z 0709/0809 VRB02KT CAVOK TX31/0715Z TN11/0806Z
Forecast period: 0900 to 1300 UTC 07 May 2021
Forecast type: FROM: standard forecast or significant change
Winds: variable direction winds at 2 MPH (2 knots; 1.0 m/s)
Visibility: 6 or more miles (10+ km)
Ceiling: unknown
Clouds: missing
Weather: no significant weather forecast for this period
Text: BECMG 0713/0715 27010KT
Forecast period: 1300 to 2000 UTC 07 May 2021
Forecast type: BECOMING: Conditions expected to become as follows by 1500 UTC 07 May 2021
Winds: from the W (270 degrees) at 12 MPH (10 knots; 5.1 m/s)
Visibility: 6 or more miles (10+ km)
Ceiling: unknown
Clouds: missing
Weather: no significant weather forecast for this period
Text: BECMG 0720/0722 18005KT
Forecast period: 2000 UTC 07 May 2021 to 0900 UTC 08 May 2021
Forecast type: BECOMING: Conditions expected to become as follows by 2200 UTC 07 May 2021
Winds: from the S (180 degrees) at 6 MPH (5 knots; 2.6 m/s)
Visibility: 6 or more miles (10+ km)
Ceiling: unknown
Clouds: missing
Weather: no significant weather forecast for this period